sensor_id;sensor_type;location;lat;lon;timestamp;P1;durP1;ratioP1;P2;durP2;ratioP2
80621;SDS011;69980;51.914;7.526;2024-02-23T00:01:47;0.40;;;0.20;;
80621;SDS011;69980;51.914;7.526;2024-02-23T00:04:12;0.65;;;0.25;;
80621;SDS011;69980;51.914;7.526;2024-02-23T00:06:38;0.80;;;0.40;;
80621;SDS011;69980;51.914;7.526;2024-02-23T00:09:03;0.60;;;0.30;;
80621;SDS011;69980;51.914;7.526;2024-02-23T00:11:28;0.60;;;0.30;;
80621;SDS011;69980;51.914;7.526;2024-02-23T00:13:54;0.70;;;0.40;;
80621;SDS011;69980;51.914;7.526;2024-02-23T00:16:19;1.67;;;0.50;;
80621;SDS011;69980;51.914;7.526;2024-02-23T00:18:44;0.80;;;0.40;;
80621;SDS011;69980;51.914;7.526;2024-02-23T00:21:10;1.45;;;0.40;;
80621;SDS011;69980;51.914;7.526;2024-02-23T00:23:35;1.85;;;0.40;;
80621;SDS011;69980;51.914;7.526;2024-02-23T00:26:00;0.60;;;0.40;;
80621;SDS011;69980;51.914;7.526;2024-02-23T00:28:25;1.42;;;0.30;;
80621;SDS011;69980;51.914;7.526;2024-02-23T00:30:51;1.40;;;0.30;;
80621;SDS011;69980;51.914;7.526;2024-02-23T00:33:16;0.50;;;0.30;;
80621;SDS011;69980;51.914;7.526;2024-02-23T00:35:41;1.27;;;0.40;;
80621;SDS011;69980;51.914;7.526;2024-02-23T00:38:06;0.88;;;0.40;;
80621;SDS011;69980;51.914;7.526;2024-02-23T00:40:32;0.80;;;0.40;;
80621;SDS011;69980;51.914;7.526;2024-02-23T00:42:57;1.08;;;0.40;;
80621;SDS011;69980;51.914;7.526;2024-02-23T00:45:23;0.60;;;0.30;;
80621;SDS011;69980;51.914;7.526;2024-02-23T00:47:48;0.57;;;0.38;;
80621;SDS011;69980;51.914;7.526;2024-02-23T00:50:13;0.82;;;0.43;;
80621;SDS011;69980;51.914;7.526;2024-02-23T00:52:39;0.77;;;0.30;;
80621;SDS011;69980;51.914;7.526;2024-02-23T00:55:04;1.17;;;0.38;;
80621;SDS011;69980;51.914;7.526;2024-02-23T00:57:30;1.38;;;0.40;;
80621;SDS011;69980;51.914;7.526;2024-02-23T00:59:56;0.60;;;0.30;;
80621;SDS011;69980;51.914;7.526;2024-02-23T01:02:22;0.70;;;0.30;;
80621;SDS011;69980;51.914;7.526;2024-02-23T01:04:47;2.03;;;0.50;;
80621;SDS011;69980;51.914;7.526;2024-02-23T01:07:12;0.63;;;0.30;;
80621;SDS011;69980;51.914;7.526;2024-02-23T01:09:38;3.17;;;0.57;;
80621;SDS011;69980;51.914;7.526;2024-02-23T01:12:03;1.80;;;0.70;;
80621;SDS011;69980;51.914;7.526;2024-02-23T01:14:28;2.55;;;0.57;;
80621;SDS011;69980;51.914;7.526;2024-02-23T01:16:53;0.93;;;0.50;;
80621;SDS011;69980;51.914;7.526;2024-02-23T01:19:19;1.83;;;0.55;;
80621;SDS011;69980;51.914;7.526;2024-02-23T01:21:44;2.28;;;0.50;;
80621;SDS011;69980;51.914;7.526;2024-02-23T01:24:09;2.65;;;0.70;;
80621;SDS011;69980;51.914;7.526;2024-02-23T01:26:35;3.35;;;0.80;;
80621;SDS011;69980;51.914;7.526;2024-02-23T01:29:00;3.08;;;0.82;;
80621;SDS011;69980;51.914;7.526;2024-02-23T01:31:25;2.75;;;0.98;;
80621;SDS011;69980;51.914;7.526;2024-02-23T01:33:50;2.97;;;1.17;;
80621;SDS011;69980;51.914;7.526;2024-02-23T01:36:16;2.05;;;0.98;;
80621;SDS011;69980;51.914;7.526;2024-02-23T01:38:41;3.03;;;1.20;;
80621;SDS011;69980;51.914;7.526;2024-02-23T01:41:06;2.47;;;1.08;;
80621;SDS011;69980;51.914;7.526;2024-02-23T01:43:32;1.70;;;1.00;;
80621;SDS011;69980;51.914;7.526;2024-02-23T01:45:57;1.90;;;1.10;;
80621;SDS011;69980;51.914;7.526;2024-02-23T01:48:22;2.10;;;1.00;;
80621;SDS011;69980;51.914;7.526;2024-02-23T01:50:48;2.50;;;1.30;;
80621;SDS011;69980;51.914;7.526;2024-02-23T01:53:13;2.83;;;1.40;;
80621;SDS011;69980;51.914;7.526;2024-02-23T01:55:41;2.33;;;1.30;;
80621;SDS011;69980;51.914;7.526;2024-02-23T01:58:07;3.30;;;1.50;;
80621;SDS011;69980;51.914;7.526;2024-02-23T02:00:33;2.70;;;1.55;;
80621;SDS011;69980;51.914;7.526;2024-02-23T02:02:59;3.05;;;1.52;;
80621;SDS011;69980;51.914;7.526;2024-02-23T02:05:24;3.33;;;1.90;;
80621;SDS011;69980;51.914;7.526;2024-02-23T02:07:50;3.85;;;1.92;;
80621;SDS011;69980;51.914;7.526;2024-02-23T02:10:16;4.88;;;1.80;;
80621;SDS011;69980;51.914;7.526;2024-02-23T02:12:42;3.85;;;1.75;;
80621;SDS011;69980;51.914;7.526;2024-02-23T02:15:07;5.20;;;2.08;;
80621;SDS011;69980;51.914;7.526;2024-02-23T02:17:33;3.92;;;1.88;;
80621;SDS011;69980;51.914;7.526;2024-02-23T02:19:58;3.08;;;1.90;;
80621;SDS011;69980;51.914;7.526;2024-02-23T02:22:24;3.70;;;1.95;;
80621;SDS011;69980;51.914;7.526;2024-02-23T02:24:49;4.32;;;2.10;;
80621;SDS011;69980;51.914;7.526;2024-02-23T02:27:15;2.85;;;1.70;;
80621;SDS011;69980;51.914;7.526;2024-02-23T02:29:40;3.42;;;1.75;;
80621;SDS011;69980;51.914;7.526;2024-02-23T02:32:05;3.65;;;1.63;;
80621;SDS011;69980;51.914;7.526;2024-02-23T02:34:31;6.47;;;1.60;;
80621;SDS011;69980;51.914;7.526;2024-02-23T02:36:56;3.08;;;1.60;;
80621;SDS011;69980;51.914;7.526;2024-02-23T02:39:21;3.03;;;1.30;;
80621;SDS011;69980;51.914;7.526;2024-02-23T02:41:50;3.95;;;1.50;;
80621;SDS011;69980;51.914;7.526;2024-02-23T02:44:15;4.93;;;1.42;;
80621;SDS011;69980;51.914;7.526;2024-02-23T02:46:41;6.90;;;1.42;;
80621;SDS011;69980;51.914;7.526;2024-02-23T02:49:06;3.22;;;1.30;;
80621;SDS011;69980;51.914;7.526;2024-02-23T02:51:31;4.35;;;1.35;;
80621;SDS011;69980;51.914;7.526;2024-02-23T02:53:57;2.70;;;1.25;;
80621;SDS011;69980;51.914;7.526;2024-02-23T02:56:22;3.53;;;1.20;;
80621;SDS011;69980;51.914;7.526;2024-02-23T02:58:47;4.22;;;1.30;;
80621;SDS011;69980;51.914;7.526;2024-02-23T03:01:13;5.18;;;1.42;;
80621;SDS011;69980;51.914;7.526;2024-02-23T03:03:38;4.15;;;1.30;;
80621;SDS011;69980;51.914;7.526;2024-02-23T03:06:03;2.58;;;1.08;;
80621;SDS011;69980;51.914;7.526;2024-02-23T03:08:29;4.55;;;1.40;;
80621;SDS011;69980;51.914;7.526;2024-02-23T03:10:54;4.40;;;1.08;;
80621;SDS011;69980;51.914;7.526;2024-02-23T03:13:19;5.90;;;1.33;;
80621;SDS011;69980;51.914;7.526;2024-02-23T03:15:44;4.13;;;1.23;;
80621;SDS011;69980;51.914;7.526;2024-02-23T03:18:10;5.57;;;1.00;;
80621;SDS011;69980;51.914;7.526;2024-02-23T03:20:35;6.97;;;1.15;;
80621;SDS011;69980;51.914;7.526;2024-02-23T03:23:00;3.13;;;0.90;;
80621;SDS011;69980;51.914;7.526;2024-02-23T03:25:26;3.38;;;0.95;;
80621;SDS011;69980;51.914;7.526;2024-02-23T03:27:51;3.25;;;0.90;;
80621;SDS011;69980;51.914;7.526;2024-02-23T03:30:16;5.63;;;1.13;;
80621;SDS011;69980;51.914;7.526;2024-02-23T03:32:41;3.95;;;0.90;;
80621;SDS011;69980;51.914;7.526;2024-02-23T03:35:07;5.00;;;1.23;;
80621;SDS011;69980;51.914;7.526;2024-02-23T03:37:32;6.43;;;1.30;;
80621;SDS011;69980;51.914;7.526;2024-02-23T03:39:58;6.00;;;1.40;;
80621;SDS011;69980;51.914;7.526;2024-02-23T03:42:23;3.05;;;1.10;;
80621;SDS011;69980;51.914;7.526;2024-02-23T03:44:48;3.92;;;1.20;;
80621;SDS011;69980;51.914;7.526;2024-02-23T03:47:14;4.10;;;1.20;;
80621;SDS011;69980;51.914;7.526;2024-02-23T03:49:39;2.80;;;1.05;;
80621;SDS011;69980;51.914;7.526;2024-02-23T03:52:04;3.03;;;1.00;;
80621;SDS011;69980;51.914;7.526;2024-02-23T03:54:30;4.07;;;1.30;;
80621;SDS011;69980;51.914;7.526;2024-02-23T03:56:55;4.07;;;1.25;;
80621;SDS011;69980;51.914;7.526;2024-02-23T03:59:20;6.10;;;1.30;;
80621;SDS011;69980;51.914;7.526;2024-02-23T04:01:46;5.00;;;1.40;;
80621;SDS011;69980;51.914;7.526;2024-02-23T04:04:11;5.13;;;1.35;;
80621;SDS011;69980;51.914;7.526;2024-02-23T04:06:36;3.03;;;1.10;;
80621;SDS011;69980;51.914;7.526;2024-02-23T04:09:02;4.00;;;1.50;;
80621;SDS011;69980;51.914;7.526;2024-02-23T04:11:27;4.03;;;1.20;;
80621;SDS011;69980;51.914;7.526;2024-02-23T04:13:53;4.15;;;1.13;;
80621;SDS011;69980;51.914;7.526;2024-02-23T04:16:21;6.85;;;1.25;;
80621;SDS011;69980;51.914;7.526;2024-02-23T04:18:47;4.25;;;1.25;;
80621;SDS011;69980;51.914;7.526;2024-02-23T04:21:13;4.90;;;1.00;;
80621;SDS011;69980;51.914;7.526;2024-02-23T04:23:38;4.47;;;1.42;;
80621;SDS011;69980;51.914;7.526;2024-02-23T04:26:03;3.95;;;1.20;;
80621;SDS011;69980;51.914;7.526;2024-02-23T04:28:28;4.95;;;1.40;;
80621;SDS011;69980;51.914;7.526;2024-02-23T04:30:54;4.55;;;1.20;;
80621;SDS011;69980;51.914;7.526;2024-02-23T04:33:19;5.07;;;1.30;;
80621;SDS011;69980;51.914;7.526;2024-02-23T04:35:44;5.93;;;1.40;;
80621;SDS011;69980;51.914;7.526;2024-02-23T04:38:10;5.20;;;1.40;;
80621;SDS011;69980;51.914;7.526;2024-02-23T04:40:35;4.82;;;1.58;;
80621;SDS011;69980;51.914;7.526;2024-02-23T04:43:00;3.80;;;1.65;;
80621;SDS011;69980;51.914;7.526;2024-02-23T04:45:25;3.38;;;1.27;;
80621;SDS011;69980;51.914;7.526;2024-02-23T04:47:51;6.25;;;1.35;;
80621;SDS011;69980;51.914;7.526;2024-02-23T04:50:16;4.80;;;1.70;;
80621;SDS011;69980;51.914;7.526;2024-02-23T04:52:41;7.85;;;1.67;;
80621;SDS011;69980;51.914;7.526;2024-02-23T04:55:07;5.28;;;1.55;;
80621;SDS011;69980;51.914;7.526;2024-02-23T04:57:32;4.45;;;1.60;;
80621;SDS011;69980;51.914;7.526;2024-02-23T04:59:58;6.05;;;1.80;;
80621;SDS011;69980;51.914;7.526;2024-02-23T05:02:23;5.15;;;1.40;;
80621;SDS011;69980;51.914;7.526;2024-02-23T05:04:48;4.05;;;1.20;;
80621;SDS011;69980;51.914;7.526;2024-02-23T05:07:13;6.50;;;1.42;;
80621;SDS011;69980;51.914;7.526;2024-02-23T05:09:39;4.93;;;1.38;;
80621;SDS011;69980;51.914;7.526;2024-02-23T05:12:04;4.55;;;1.20;;
80621;SDS011;69980;51.914;7.526;2024-02-23T05:14:30;5.07;;;1.15;;
80621;SDS011;69980;51.914;7.526;2024-02-23T05:16:55;3.55;;;1.15;;
80621;SDS011;69980;51.914;7.526;2024-02-23T05:19:20;4.68;;;1.10;;
80621;SDS011;69980;51.914;7.526;2024-02-23T05:21:45;4.43;;;1.17;;
80621;SDS011;69980;51.914;7.526;2024-02-23T05:24:11;4.20;;;1.05;;
80621;SDS011;69980;51.914;7.526;2024-02-23T05:26:36;4.22;;;1.02;;
80621;SDS011;69980;51.914;7.526;2024-02-23T05:29:02;3.47;;;0.90;;
80621;SDS011;69980;51.914;7.526;2024-02-23T05:34:12;7.03;;;0.90;;
80621;SDS011;69980;51.914;7.526;2024-02-23T05:36:38;2.50;;;0.70;;
80621;SDS011;69980;51.914;7.526;2024-02-23T05:39:03;3.60;;;0.80;;
80621;SDS011;69980;51.914;7.526;2024-02-23T05:41:28;5.47;;;0.80;;
80621;SDS011;69980;51.914;7.526;2024-02-23T05:43:53;3.55;;;1.10;;
80621;SDS011;69980;51.914;7.526;2024-02-23T05:46:19;5.53;;;1.30;;
80621;SDS011;69980;51.914;7.526;2024-02-23T05:48:46;3.08;;;0.75;;
80621;SDS011;69980;51.914;7.526;2024-02-23T05:51:11;3.80;;;0.80;;
80621;SDS011;69980;51.914;7.526;2024-02-23T05:53:37;5.18;;;0.90;;
80621;SDS011;69980;51.914;7.526;2024-02-23T05:56:02;4.80;;;1.08;;
80621;SDS011;69980;51.914;7.526;2024-02-23T05:58:27;4.90;;;0.93;;
80621;SDS011;69980;51.914;7.526;2024-02-23T06:00:53;6.35;;;1.02;;
80621;SDS011;69980;51.914;7.526;2024-02-23T06:03:18;2.95;;;0.60;;
80621;SDS011;69980;51.914;7.526;2024-02-23T06:05:43;4.22;;;0.85;;
80621;SDS011;69980;51.914;7.526;2024-02-23T06:08:08;5.13;;;0.90;;
80621;SDS011;69980;51.914;7.526;2024-02-23T06:10:34;3.95;;;0.88;;
80621;SDS011;69980;51.914;7.526;2024-02-23T06:12:59;6.25;;;1.00;;
80621;SDS011;69980;51.914;7.526;2024-02-23T06:15:24;5.45;;;0.98;;
80621;SDS011;69980;51.914;7.526;2024-02-23T06:17:50;4.65;;;1.00;;
80621;SDS011;69980;51.914;7.526;2024-02-23T06:20:15;3.78;;;0.90;;
80621;SDS011;69980;51.914;7.526;2024-02-23T06:22:40;4.28;;;1.35;;
80621;SDS011;69980;51.914;7.526;2024-02-23T06:25:06;5.93;;;1.50;;
80621;SDS011;69980;51.914;7.526;2024-02-23T06:27:31;3.85;;;0.85;;
80621;SDS011;69980;51.914;7.526;2024-02-23T06:29:56;3.58;;;0.80;;
80621;SDS011;69980;51.914;7.526;2024-02-23T06:32:21;4.60;;;0.80;;
80621;SDS011;69980;51.914;7.526;2024-02-23T06:34:47;4.40;;;0.63;;
80621;SDS011;69980;51.914;7.526;2024-02-23T06:37:12;2.80;;;0.70;;
80621;SDS011;69980;51.914;7.526;2024-02-23T06:39:37;4.22;;;0.60;;
80621;SDS011;69980;51.914;7.526;2024-02-23T06:42:03;6.07;;;0.90;;
80621;SDS011;69980;51.914;7.526;2024-02-23T06:44:28;7.35;;;0.90;;
80621;SDS011;69980;51.914;7.526;2024-02-23T06:46:53;4.30;;;0.70;;
80621;SDS011;69980;51.914;7.526;2024-02-23T06:49:19;2.35;;;0.60;;
80621;SDS011;69980;51.914;7.526;2024-02-23T06:51:44;4.80;;;0.80;;
80621;SDS011;69980;51.914;7.526;2024-02-23T06:54:09;7.78;;;0.73;;
80621;SDS011;69980;51.914;7.526;2024-02-23T06:56:34;3.17;;;0.60;;
80621;SDS011;69980;51.914;7.526;2024-02-23T06:59:00;5.65;;;1.02;;
80621;SDS011;69980;51.914;7.526;2024-02-23T07:01:25;4.18;;;0.70;;
80621;SDS011;69980;51.914;7.526;2024-02-23T07:03:50;4.18;;;0.65;;
80621;SDS011;69980;51.914;7.526;2024-02-23T07:06:16;3.28;;;0.63;;
80621;SDS011;69980;51.914;7.526;2024-02-23T07:08:41;4.82;;;0.70;;
80621;SDS011;69980;51.914;7.526;2024-02-23T07:11:07;5.35;;;0.82;;
80621;SDS011;69980;51.914;7.526;2024-02-23T07:13:32;6.72;;;0.77;;
80621;SDS011;69980;51.914;7.526;2024-02-23T07:15:57;3.85;;;0.60;;
80621;SDS011;69980;51.914;7.526;2024-02-23T07:18:24;3.20;;;0.70;;
80621;SDS011;69980;51.914;7.526;2024-02-23T07:20:50;3.90;;;0.80;;
80621;SDS011;69980;51.914;7.526;2024-02-23T07:23:15;3.08;;;0.70;;
80621;SDS011;69980;51.914;7.526;2024-02-23T07:25:40;4.85;;;0.95;;
80621;SDS011;69980;51.914;7.526;2024-02-23T07:28:05;3.05;;;0.70;;
80621;SDS011;69980;51.914;7.526;2024-02-23T07:30:31;4.03;;;1.02;;
80621;SDS011;69980;51.914;7.526;2024-02-23T07:32:56;5.13;;;0.80;;
80621;SDS011;69980;51.914;7.526;2024-02-23T07:35:21;8.32;;;0.95;;
80621;SDS011;69980;51.914;7.526;2024-02-23T07:37:47;7.22;;;0.80;;
80621;SDS011;69980;51.914;7.526;2024-02-23T07:40:12;5.07;;;0.80;;
80621;SDS011;69980;51.914;7.526;2024-02-23T07:42:37;6.38;;;0.70;;
80621;SDS011;69980;51.914;7.526;2024-02-23T07:45:03;3.97;;;0.70;;
80621;SDS011;69980;51.914;7.526;2024-02-23T07:47:29;4.82;;;0.70;;
80621;SDS011;69980;51.914;7.526;2024-02-23T07:49:57;5.50;;;1.02;;
80621;SDS011;69980;51.914;7.526;2024-02-23T07:52:23;4.88;;;1.17;;
80621;SDS011;69980;51.914;7.526;2024-02-23T07:54:48;4.65;;;1.00;;
80621;SDS011;69980;51.914;7.526;2024-02-23T07:57:13;4.82;;;0.60;;
80621;SDS011;69980;51.914;7.526;2024-02-23T07:59:39;5.90;;;0.85;;
80621;SDS011;69980;51.914;7.526;2024-02-23T08:02:04;7.55;;;0.80;;
80621;SDS011;69980;51.914;7.526;2024-02-23T08:04:29;4.10;;;0.60;;
80621;SDS011;69980;51.914;7.526;2024-02-23T08:06:55;3.72;;;0.70;;
80621;SDS011;69980;51.914;7.526;2024-02-23T08:09:20;3.88;;;0.63;;
80621;SDS011;69980;51.914;7.526;2024-02-23T08:11:46;5.60;;;0.80;;
80621;SDS011;69980;51.914;7.526;2024-02-23T08:14:12;3.85;;;0.70;;
80621;SDS011;69980;51.914;7.526;2024-02-23T08:16:37;3.97;;;0.70;;
80621;SDS011;69980;51.914;7.526;2024-02-23T08:19:02;5.55;;;0.75;;
80621;SDS011;69980;51.914;7.526;2024-02-23T08:21:28;5.25;;;0.70;;
80621;SDS011;69980;51.914;7.526;2024-02-23T08:23:53;6.35;;;0.60;;
80621;SDS011;69980;51.914;7.526;2024-02-23T08:26:18;7.32;;;0.90;;
80621;SDS011;69980;51.914;7.526;2024-02-23T08:28:43;5.60;;;0.88;;
80621;SDS011;69980;51.914;7.526;2024-02-23T08:31:09;4.00;;;0.70;;
80621;SDS011;69980;51.914;7.526;2024-02-23T08:33:34;3.33;;;0.70;;
80621;SDS011;69980;51.914;7.526;2024-02-23T08:35:59;2.63;;;0.60;;
80621;SDS011;69980;51.914;7.526;2024-02-23T08:38:25;3.08;;;0.80;;
80621;SDS011;69980;51.914;7.526;2024-02-23T08:40:50;3.67;;;0.70;;
80621;SDS011;69980;51.914;7.526;2024-02-23T08:43:15;4.30;;;0.80;;
80621;SDS011;69980;51.914;7.526;2024-02-23T08:45:40;4.13;;;1.20;;
80621;SDS011;69980;51.914;7.526;2024-02-23T08:48:06;3.05;;;0.70;;
80621;SDS011;69980;51.914;7.526;2024-02-23T08:50:31;4.05;;;0.90;;
80621;SDS011;69980;51.914;7.526;2024-02-23T08:52:57;3.90;;;1.02;;
80621;SDS011;69980;51.914;7.526;2024-02-23T08:55:22;3.95;;;1.10;;
80621;SDS011;69980;51.914;7.526;2024-02-23T08:57:47;4.63;;;1.20;;
80621;SDS011;69980;51.914;7.526;2024-02-23T09:00:13;5.50;;;0.70;;
80621;SDS011;69980;51.914;7.526;2024-02-23T09:02:38;4.15;;;0.98;;
80621;SDS011;69980;51.914;7.526;2024-02-23T09:05:04;4.22;;;0.68;;
80621;SDS011;69980;51.914;7.526;2024-02-23T09:07:30;4.78;;;0.90;;
80621;SDS011;69980;51.914;7.526;2024-02-23T09:09:55;4.05;;;1.00;;
80621;SDS011;69980;51.914;7.526;2024-02-23T09:12:20;5.15;;;0.90;;
80621;SDS011;69980;51.914;7.526;2024-02-23T09:14:46;4.28;;;0.82;;
80621;SDS011;69980;51.914;7.526;2024-02-23T09:17:11;3.65;;;0.82;;
80621;SDS011;69980;51.914;7.526;2024-02-23T09:19:37;2.92;;;0.60;;
80621;SDS011;69980;51.914;7.526;2024-02-23T09:22:02;3.33;;;0.82;;
80621;SDS011;69980;51.914;7.526;2024-02-23T09:24:27;5.25;;;0.82;;
80621;SDS011;69980;51.914;7.526;2024-02-23T09:26:53;4.20;;;0.80;;
80621;SDS011;69980;51.914;7.526;2024-02-23T09:29:18;4.82;;;0.90;;
80621;SDS011;69980;51.914;7.526;2024-02-23T09:31:43;4.53;;;0.88;;
80621;SDS011;69980;51.914;7.526;2024-02-23T09:34:09;4.32;;;0.85;;
80621;SDS011;69980;51.914;7.526;2024-02-23T09:36:34;4.80;;;0.82;;
80621;SDS011;69980;51.914;7.526;2024-02-23T09:38:59;6.45;;;0.90;;
80621;SDS011;69980;51.914;7.526;2024-02-23T09:41:24;4.03;;;0.93;;
80621;SDS011;69980;51.914;7.526;2024-02-23T09:43:53;4.40;;;0.80;;
80621;SDS011;69980;51.914;7.526;2024-02-23T09:46:23;4.40;;;0.90;;
80621;SDS011;69980;51.914;7.526;2024-02-23T09:48:49;5.07;;;1.05;;
80621;SDS011;69980;51.914;7.526;2024-02-23T09:51:15;4.85;;;0.80;;
80621;SDS011;69980;51.914;7.526;2024-02-23T09:53:41;4.28;;;0.80;;
80621;SDS011;69980;51.914;7.526;2024-02-23T09:56:07;3.35;;;0.63;;
80621;SDS011;69980;51.914;7.526;2024-02-23T09:58:33;4.03;;;1.05;;
80621;SDS011;69980;51.914;7.526;2024-02-23T10:00:59;5.90;;;1.02;;
80621;SDS011;69980;51.914;7.526;2024-02-23T10:03:27;4.03;;;0.70;;
80621;SDS011;69980;51.914;7.526;2024-02-23T10:05:53;2.42;;;0.75;;
80621;SDS011;69980;51.914;7.526;2024-02-23T10:08:18;4.95;;;1.15;;
80621;SDS011;69980;51.914;7.526;2024-02-23T10:10:45;4.03;;;1.25;;
80621;SDS011;69980;51.914;7.526;2024-02-23T10:13:11;3.08;;;1.08;;
80621;SDS011;69980;51.914;7.526;2024-02-23T10:15:36;4.20;;;0.80;;
80621;SDS011;69980;51.914;7.526;2024-02-23T10:18:02;4.35;;;1.17;;
80621;SDS011;69980;51.914;7.526;2024-02-23T10:20:27;4.45;;;1.33;;
80621;SDS011;69980;51.914;7.526;2024-02-23T10:22:53;3.78;;;1.00;;
80621;SDS011;69980;51.914;7.526;2024-02-23T10:25:18;3.67;;;0.90;;
80621;SDS011;69980;51.914;7.526;2024-02-23T10:27:43;3.72;;;0.80;;
80621;SDS011;69980;51.914;7.526;2024-02-23T10:30:09;5.05;;;0.80;;
80621;SDS011;69980;51.914;7.526;2024-02-23T10:32:34;4.03;;;1.00;;
80621;SDS011;69980;51.914;7.526;2024-02-23T10:35:00;4.20;;;1.10;;
80621;SDS011;69980;51.914;7.526;2024-02-23T10:37:26;5.68;;;0.93;;
80621;SDS011;69980;51.914;7.526;2024-02-23T10:39:54;3.25;;;0.80;;
80621;SDS011;69980;51.914;7.526;2024-02-23T10:42:23;2.95;;;0.82;;
80621;SDS011;69980;51.914;7.526;2024-02-23T10:44:49;4.43;;;0.80;;
80621;SDS011;69980;51.914;7.526;2024-02-23T10:47:14;3.30;;;0.80;;
80621;SDS011;69980;51.914;7.526;2024-02-23T10:49:39;4.05;;;0.82;;
80621;SDS011;69980;51.914;7.526;2024-02-23T10:52:05;5.40;;;0.90;;
80621;SDS011;69980;51.914;7.526;2024-02-23T10:54:31;4.85;;;0.70;;
80621;SDS011;69980;51.914;7.526;2024-02-23T10:56:56;5.38;;;1.00;;
80621;SDS011;69980;51.914;7.526;2024-02-23T10:59:21;6.47;;;1.05;;
80621;SDS011;69980;51.914;7.526;2024-02-23T11:01:47;2.97;;;0.90;;
80621;SDS011;69980;51.914;7.526;2024-02-23T11:04:13;4.70;;;0.77;;
80621;SDS011;69980;51.914;7.526;2024-02-23T11:06:39;3.20;;;0.82;;
80621;SDS011;69980;51.914;7.526;2024-02-23T11:09:08;4.80;;;0.82;;
80621;SDS011;69980;51.914;7.526;2024-02-23T11:11:37;6.05;;;1.15;;
80621;SDS011;69980;51.914;7.526;2024-02-23T11:14:03;3.13;;;0.93;;
80621;SDS011;69980;51.914;7.526;2024-02-23T11:16:32;3.50;;;0.85;;
80621;SDS011;69980;51.914;7.526;2024-02-23T11:19:04;2.92;;;0.93;;
80621;SDS011;69980;51.914;7.526;2024-02-23T11:21:33;4.00;;;1.05;;
80621;SDS011;69980;51.914;7.526;2024-02-23T11:24:01;3.40;;;0.90;;
80621;SDS011;69980;51.914;7.526;2024-02-23T11:26:28;6.45;;;1.20;;
80621;SDS011;69980;51.914;7.526;2024-02-23T11:28:53;2.42;;;0.82;;
80621;SDS011;69980;51.914;7.526;2024-02-23T11:31:22;3.00;;;0.77;;
80621;SDS011;69980;51.914;7.526;2024-02-23T11:33:48;5.60;;;0.93;;
80621;SDS011;69980;51.914;7.526;2024-02-23T11:36:21;2.95;;;0.80;;
80621;SDS011;69980;51.914;7.526;2024-02-23T11:38:47;3.10;;;0.65;;
80621;SDS011;69980;51.914;7.526;2024-02-23T11:41:12;2.95;;;0.77;;
80621;SDS011;69980;51.914;7.526;2024-02-23T11:43:38;4.78;;;0.80;;
80621;SDS011;69980;51.914;7.526;2024-02-23T11:46:04;4.43;;;0.80;;
80621;SDS011;69980;51.914;7.526;2024-02-23T11:48:30;4.03;;;0.90;;
80621;SDS011;69980;51.914;7.526;2024-02-23T11:50:55;3.53;;;0.80;;
80621;SDS011;69980;51.914;7.526;2024-02-23T11:53:20;3.33;;;0.68;;
80621;SDS011;69980;51.914;7.526;2024-02-23T11:55:45;3.60;;;0.80;;
80621;SDS011;69980;51.914;7.526;2024-02-23T11:58:12;3.20;;;0.60;;
80621;SDS011;69980;51.914;7.526;2024-02-23T12:00:37;2.92;;;0.70;;
80621;SDS011;69980;51.914;7.526;2024-02-23T12:03:04;3.80;;;0.70;;
80621;SDS011;69980;51.914;7.526;2024-02-23T12:05:29;2.83;;;0.80;;
80621;SDS011;69980;51.914;7.526;2024-02-23T12:07:55;3.13;;;0.70;;
80621;SDS011;69980;51.914;7.526;2024-02-23T12:10:20;3.10;;;0.80;;
80621;SDS011;69980;51.914;7.526;2024-02-23T12:12:45;2.55;;;0.70;;
80621;SDS011;69980;51.914;7.526;2024-02-23T12:15:11;5.57;;;1.08;;
80621;SDS011;69980;51.914;7.526;2024-02-23T12:17:36;4.05;;;0.90;;
80621;SDS011;69980;51.914;7.526;2024-02-23T12:20:02;2.70;;;0.80;;
80621;SDS011;69980;51.914;7.526;2024-02-23T12:22:28;4.50;;;1.02;;
80621;SDS011;69980;51.914;7.526;2024-02-23T12:24:56;3.20;;;0.70;;
80621;SDS011;69980;51.914;7.526;2024-02-23T12:27:22;2.28;;;0.63;;
80621;SDS011;69980;51.914;7.526;2024-02-23T12:29:54;3.15;;;0.80;;
80621;SDS011;69980;51.914;7.526;2024-02-23T12:32:20;3.08;;;0.70;;
80621;SDS011;69980;51.914;7.526;2024-02-23T12:34:45;3.10;;;0.80;;
80621;SDS011;69980;51.914;7.526;2024-02-23T12:37:14;4.00;;;0.85;;
80621;SDS011;69980;51.914;7.526;2024-02-23T12:39:39;4.78;;;0.85;;
80621;SDS011;69980;51.914;7.526;2024-02-23T12:42:05;2.30;;;0.65;;
80621;SDS011;69980;51.914;7.526;2024-02-23T12:44:30;3.00;;;0.70;;
80621;SDS011;69980;51.914;7.526;2024-02-23T12:46:55;2.03;;;0.60;;
80621;SDS011;69980;51.914;7.526;2024-02-23T12:49:20;2.75;;;0.70;;
80621;SDS011;69980;51.914;7.526;2024-02-23T12:51:46;3.13;;;0.52;;
80621;SDS011;69980;51.914;7.526;2024-02-23T12:54:11;2.65;;;0.60;;
80621;SDS011;69980;51.914;7.526;2024-02-23T12:56:36;2.70;;;0.80;;
80621;SDS011;69980;51.914;7.526;2024-02-23T12:59:02;2.90;;;0.77;;
80621;SDS011;69980;51.914;7.526;2024-02-23T13:01:27;4.20;;;0.70;;
80621;SDS011;69980;51.914;7.526;2024-02-23T13:03:52;2.70;;;0.77;;
80621;SDS011;69980;51.914;7.526;2024-02-23T13:06:18;2.28;;;0.60;;
80621;SDS011;69980;51.914;7.526;2024-02-23T13:08:43;5.07;;;0.90;;
80621;SDS011;69980;51.914;7.526;2024-02-23T13:11:08;4.70;;;1.20;;
80621;SDS011;69980;51.914;7.526;2024-02-23T13:13:34;3.22;;;1.00;;
80621;SDS011;69980;51.914;7.526;2024-02-23T13:15:59;3.35;;;0.90;;
80621;SDS011;69980;51.914;7.526;2024-02-23T13:18:24;5.65;;;0.90;;
80621;SDS011;69980;51.914;7.526;2024-02-23T13:20:50;2.80;;;0.90;;
80621;SDS011;69980;51.914;7.526;2024-02-23T13:23:15;3.92;;;0.77;;
80621;SDS011;69980;51.914;7.526;2024-02-23T13:25:41;4.03;;;0.80;;
80621;SDS011;69980;51.914;7.526;2024-02-23T13:28:07;3.95;;;0.80;;
80621;SDS011;69980;51.914;7.526;2024-02-23T13:30:33;3.15;;;0.70;;
80621;SDS011;69980;51.914;7.526;2024-02-23T13:32:59;4.57;;;0.90;;
80621;SDS011;69980;51.914;7.526;2024-02-23T13:35:24;4.68;;;0.88;;
80621;SDS011;69980;51.914;7.526;2024-02-23T13:37:50;2.30;;;0.60;;
80621;SDS011;69980;51.914;7.526;2024-02-23T13:40:15;3.75;;;0.65;;
80621;SDS011;69980;51.914;7.526;2024-02-23T13:42:40;2.78;;;0.80;;
80621;SDS011;69980;51.914;7.526;2024-02-23T13:45:06;2.92;;;0.70;;
80621;SDS011;69980;51.914;7.526;2024-02-23T13:47:32;4.13;;;0.80;;
80621;SDS011;69980;51.914;7.526;2024-02-23T13:49:57;3.17;;;0.90;;
80621;SDS011;69980;51.914;7.526;2024-02-23T13:52:22;2.20;;;0.52;;
80621;SDS011;69980;51.914;7.526;2024-02-23T13:54:48;4.28;;;0.60;;
80621;SDS011;69980;51.914;7.526;2024-02-23T13:57:13;3.00;;;0.70;;
80621;SDS011;69980;51.914;7.526;2024-02-23T13:59:38;2.38;;;0.80;;
80621;SDS011;69980;51.914;7.526;2024-02-23T14:02:04;3.90;;;0.70;;
80621;SDS011;69980;51.914;7.526;2024-02-23T14:04:29;3.05;;;0.70;;
80621;SDS011;69980;51.914;7.526;2024-02-23T14:06:54;2.15;;;0.60;;
80621;SDS011;69980;51.914;7.526;2024-02-23T14:09:20;3.33;;;0.80;;
80621;SDS011;69980;51.914;7.526;2024-02-23T14:11:45;2.83;;;0.60;;
80621;SDS011;69980;51.914;7.526;2024-02-23T14:14:10;2.53;;;0.68;;
80621;SDS011;69980;51.914;7.526;2024-02-23T14:16:36;3.28;;;0.70;;
80621;SDS011;69980;51.914;7.526;2024-02-23T14:19:01;2.90;;;0.80;;
80621;SDS011;69980;51.914;7.526;2024-02-23T14:21:26;5.60;;;1.50;;
80621;SDS011;69980;51.914;7.526;2024-02-23T14:23:51;3.35;;;0.90;;
80621;SDS011;69980;51.914;7.526;2024-02-23T14:26:17;5.10;;;0.85;;
80621;SDS011;69980;51.914;7.526;2024-02-23T14:28:42;4.07;;;0.80;;
80621;SDS011;69980;51.914;7.526;2024-02-23T14:31:07;5.05;;;0.80;;
80621;SDS011;69980;51.914;7.526;2024-02-23T14:33:33;5.30;;;0.80;;
80621;SDS011;69980;51.914;7.526;2024-02-23T14:35:58;3.50;;;0.80;;
80621;SDS011;69980;51.914;7.526;2024-02-23T14:38:23;3.13;;;0.60;;
80621;SDS011;69980;51.914;7.526;2024-02-23T14:40:48;4.28;;;0.80;;